»·PEaware :: DAL7150 KSAN-KLAX

DAL7150 :: KSAN-KLAX

FLIGHT INFORMATION

Flight Status: Arrived
Operator:
Delta Air Lines
More flights by this operator :: More flights under this callsign
Pilot: John H. (20300)
Aircraft: AIRBUS A320
(A320)
More flights by this aircraft type
Origin: KSAN San Diego Intl-Lindbergh
United States
Destination: KLAX Los Angeles Intl
United States
More flights between these airports :: More routes between these airports
Route: +CWARD2 SLI
File this flight plan on PilotEdge
Remarks:
Altitude:
(Current/Filed)
180ft
Speed:
(Current/Filed)
320kts
Departed: 24-Sep-18 08:47 AM
Arrived: 24-Sep-18 09:16 AM
Distance/Time
Traveled:
95nm/0:29
Distance/Time
To Go:
Arrived

Flight Plot

Page will automatically refresh every two minutes.

Flight plan parsing failed; only flown route is shown


Map Options




Map Legend


Flown Route
Filed Route
Departure Airport
Arrival Airport
Navaid (VOR, NDB)
Fix

Horizontal Profiles

Position Reports

Time Latitude Longitude Heading Altitude Ground
Speed
24-Sep-18 08:24 32.733425 -117.200654 266 29ft 0kts
24-Sep-18 08:25 32.733425 -117.200654 266 29ft 0kts
24-Sep-18 08:26 32.733425 -117.200654 266 29ft 0kts
24-Sep-18 08:27 32.733425 -117.200655 266 29ft 0kts
24-Sep-18 08:28 32.733425 -117.200655 266 29ft 0kts
24-Sep-18 08:29 32.733425 -117.200655 266 29ft 0kts
24-Sep-18 08:30 32.733425 -117.200656 266 29ft 0kts
24-Sep-18 08:31 32.733425 -117.200656 266 29ft 0kts
24-Sep-18 08:32 32.733425 -117.200656 266 29ft 0kts
24-Sep-18 08:33 32.732833 -117.201890 99 29ft 0kts
24-Sep-18 08:34 32.732833 -117.201889 99 29ft 0kts
24-Sep-18 08:35 32.732833 -117.201889 99 29ft 0kts
24-Sep-18 08:36 32.732833 -117.201889 99 29ft 0kts
24-Sep-18 08:37 32.732833 -117.201888 99 29ft 0kts
24-Sep-18 08:38 32.732839 -117.201932 99 29ft 1kts
24-Sep-18 08:39 32.732961 -117.202736 100 29ft 0kts
24-Sep-18 08:40 32.733065 -117.202682 332 29ft 0kts
24-Sep-18 08:41 32.733066 -117.202682 332 29ft 0kts
24-Sep-18 08:42 32.735018 -117.202584 15 29ft 14kts
24-Sep-18 08:43 32.734426 -117.197250 105 29ft 25kts
24-Sep-18 08:44 32.731970 -117.186902 105 29ft 39kts
24-Sep-18 08:45 32.729642 -117.176444 70 29ft 8kts
24-Sep-18 08:46 32.729688 -117.176327 64 29ft 0kts
24-Sep-18 08:47 32.729689 -117.176327 64 29ft 0kts
24-Sep-18 08:48 32.729808 -117.176021 65 29ft 5kts
24-Sep-18 08:49 32.732129 -117.183928 290 29ft 133kts
24-Sep-18 08:50 32.745858 -117.240412 286 2708ft 202kts
24-Sep-18 08:51 32.784532 -117.293304 312 5023ft 245kts
24-Sep-18 08:52 32.826678 -117.360723 306 6002ft 256kts
24-Sep-18 08:53 32.870257 -117.428049 304 7213ft 260kts
24-Sep-18 08:54 32.914703 -117.497067 304 8219ft 264kts
24-Sep-18 08:55 32.959573 -117.566925 304 9220ft 268kts
24-Sep-18 08:56 33.005050 -117.637888 304 10002ft 271kts
24-Sep-18 08:57 33.050873 -117.709486 304 9997ft 271kts
24-Sep-18 08:58 33.107259 -117.774032 317 10000ft 297kts
24-Sep-18 08:59 33.171230 -117.838753 316 9997ft 302kts
24-Sep-18 09:00 33.249147 -117.876489 345 9999ft 312kts
24-Sep-18 09:01 33.334157 -117.896733 344 10006ft 311kts
24-Sep-18 09:02 33.418051 -117.921248 338 10006ft 310kts
24-Sep-18 09:03 33.498069 -117.950649 339 8368ft 290kts
24-Sep-18 09:04 33.572049 -117.977584 338 7621ft 271kts
24-Sep-18 09:05 33.644170 -118.003869 338 7414ft 271kts
24-Sep-18 09:06 33.716361 -118.030255 338 7055ft 269kts
24-Sep-18 09:07 33.790092 -118.043147 1 5154ft 271kts
24-Sep-18 09:08 33.863427 -118.035485 1 4821ft 262kts
24-Sep-18 09:09 33.935199 -118.028792 1 4003ft 257kts
24-Sep-18 09:10 33.976702 -118.066814 252 3987ft 193kts
24-Sep-18 09:11 33.964610 -118.118941 266 3943ft 146kts
24-Sep-18 09:12 33.959491 -118.168829 265 3523ft 151kts
24-Sep-18 09:13 33.954355 -118.218973 265 2797ft 146kts
24-Sep-18 09:14 33.949458 -118.266872 265 2032ft 138kts
24-Sep-18 09:15 33.944774 -118.312680 264 1300ft 137kts
24-Sep-18 09:16 33.940125 -118.358119 263 573ft 135kts
24-Sep-18 09:17 33.935854 -118.399828 262 140ft 73kts
24-Sep-18 09:18 33.935612 -118.407405 352 140ft 0kts
24-Sep-18 09:19 33.936236 -118.407498 352 140ft 5kts
24-Sep-18 09:20 33.939369 -118.407962 351 140ft 14kts
24-Sep-18 09:21 33.939955 -118.408731 264 140ft 0kts

Navigation Log

Ident Type
Flight plan parsing failed, navigation log unavailable